createdAt,value
2022-10-29T00:01:05.633Z,15.24
2022-10-29T00:03:33.735Z,14.89
2022-10-29T00:06:06.735Z,14.92
2022-10-29T00:08:37.214Z,14.81
2022-10-29T00:11:10.436Z,14.97
2022-10-29T00:13:38.738Z,14.64
2022-10-29T00:16:17.776Z,14.54
2022-10-29T00:18:46.456Z,14.75
2022-10-29T00:21:19.397Z,14.39
2022-10-29T00:23:47.893Z,14.74
2022-10-29T00:26:16.360Z,14.83
2022-10-29T00:28:44.279Z,14.55
2022-10-29T00:31:19.084Z,14.72
2022-10-29T00:33:47.313Z,14.63
2022-10-29T00:36:17.620Z,14.63
2022-10-29T00:38:45.771Z,14.58
2022-10-29T00:41:19.727Z,14.61
2022-10-29T00:43:50.889Z,14.65
2022-10-29T00:46:24.204Z,14.63
2022-10-29T00:48:55.555Z,14.66
2022-10-29T00:51:23.531Z,14.81
2022-10-29T00:54:02.649Z,14.87
2022-10-29T00:56:34.615Z,14.66
2022-10-29T00:59:03.025Z,14.68
2022-10-29T01:01:31.100Z,14.68
2022-10-29T01:04:00.289Z,14.47
2022-10-29T01:06:30.711Z,14.35
2022-10-29T01:08:58.524Z,13.96
2022-10-29T01:12:01.128Z,13.81
2022-10-29T01:14:32.844Z,14.19
2022-10-29T01:17:03.166Z,14.50
2022-10-29T01:19:49.694Z,14.34
2022-10-29T01:22:26.183Z,14.40
2022-10-29T01:25:27.378Z,14.43
2022-10-29T01:28:39.597Z,14.56
2022-10-29T01:31:28.554Z,14.38
2022-10-29T01:34:23.271Z,14.28
2022-10-29T01:36:56.418Z,14.54
2022-10-29T01:39:36.612Z,14.21
2022-10-29T01:42:19.955Z,14.32
2022-10-29T01:45:14.989Z,14.36
2022-10-29T01:47:49.793Z,14.17
2022-10-29T01:50:21.835Z,14.19
2022-10-29T01:52:51.060Z,14.40
2022-10-29T01:55:30.993Z,13.93
2022-10-29T01:57:59.208Z,14.23
2022-10-29T02:00:29.117Z,14.01
2022-10-29T02:03:15.192Z,14.13
2022-10-29T02:05:51.673Z,14.33
2022-10-29T02:08:57.784Z,14.39
2022-10-29T02:11:30.827Z,14.41
2022-10-29T02:14:18.761Z,14.02
2022-10-29T02:16:48.449Z,14.11
2022-10-29T02:19:16.237Z,14.09
2022-10-29T02:21:45.190Z,14.10
2022-10-29T02:24:13.045Z,13.41
2022-10-29T02:26:40.547Z,13.72
2022-10-29T02:29:08.096Z,13.92
2022-10-29T02:31:36.271Z,13.87
2022-10-29T02:34:03.932Z,13.96
2022-10-29T02:36:31.564Z,14.31
2022-10-29T02:38:59.523Z,13.16
2022-10-29T02:41:27.083Z,13.83
2022-10-29T02:43:54.705Z,14.08
2022-10-29T02:46:24.239Z,13.84
2022-10-29T02:48:51.871Z,13.52
2022-10-29T02:51:19.536Z,13.90
2022-10-29T02:53:47.592Z,13.90
2022-10-29T02:56:15.112Z,13.82
2022-10-29T02:58:42.672Z,13.73
2022-10-29T03:01:10.680Z,13.95
2022-10-29T03:03:38.305Z,14.08
2022-10-29T03:06:12.767Z,13.99
2022-10-29T03:08:41.006Z,13.66
2022-10-29T03:11:09.157Z,13.78
2022-10-29T03:16:05.976Z,13.29
2022-10-29T03:18:33.522Z,13.20
2022-10-29T03:21:01.140Z,13.66
2022-10-29T03:23:28.952Z,13.68
2022-10-29T03:25:56.795Z,13.54
2022-10-29T03:28:25.982Z,13.37
2022-10-29T03:30:54.531Z,12.79
2022-10-29T03:33:22.359Z,13.30
2022-10-29T03:35:49.998Z,13.36
2022-10-29T03:38:17.937Z,13.54
2022-10-29T03:40:45.430Z,12.68
2022-10-29T03:43:12.922Z,13.32
2022-10-29T03:45:40.811Z,12.98
2022-10-29T03:48:08.448Z,12.82
2022-10-29T03:50:36.003Z,13.57
2022-10-29T03:53:03.852Z,13.60
2022-10-29T03:55:31.430Z,13.37
2022-10-29T03:57:59.183Z,13.47
2022-10-29T04:00:27.188Z,12.89
2022-10-29T04:02:55.428Z,13.33
2022-10-29T04:05:23.233Z,13.49
2022-10-29T04:07:50.849Z,13.38
2022-10-29T04:10:18.735Z,13.20
2022-10-29T04:12:46.859Z,13.14
2022-10-29T04:15:14.408Z,13.42
2022-10-29T04:17:42.299Z,13.57
2022-10-29T04:20:21.163Z,13.74
2022-10-29T04:28:17.613Z,13.60
2022-10-29T04:28:51.529Z,14.03
2022-10-29T04:31:19.413Z,13.60
2022-10-29T04:33:47.398Z,13.85
2022-10-29T04:36:14.973Z,13.92
2022-10-29T04:38:42.608Z,13.77
2022-10-29T04:41:10.485Z,13.82
2022-10-29T04:43:38.104Z,13.76
2022-10-29T04:46:05.705Z,13.77
2022-10-29T04:48:33.633Z,14.00
2022-10-29T04:51:01.248Z,14.11
2022-10-29T04:53:29.019Z,14.08
2022-10-29T04:56:01.741Z,14.17
2022-10-29T04:58:29.304Z,14.23
2022-10-29T05:01:05.118Z,13.99
2022-10-29T05:03:33.622Z,14.10
2022-10-29T05:06:05.563Z,13.79
2022-10-29T05:08:33.344Z,13.74
2022-10-29T05:11:05.488Z,13.34
2022-10-29T05:13:33.712Z,13.84
2022-10-29T05:16:02.114Z,13.92
2022-10-29T05:18:29.817Z,13.66
2022-10-29T05:20:57.920Z,13.81
2022-10-29T05:23:25.778Z,13.82
2022-10-29T05:25:55.831Z,13.52
2022-10-29T05:28:24.773Z,13.45
2022-10-29T05:30:53.413Z,13.44
2022-10-29T05:33:23.503Z,13.82
2022-10-29T05:35:51.855Z,13.72
2022-10-29T05:38:19.983Z,13.71
2022-10-29T05:40:47.568Z,13.76
2022-10-29T05:43:16.589Z,13.74
2022-10-29T05:45:45.409Z,13.39
2022-10-29T05:48:13.487Z,13.84
2022-10-29T05:50:41.252Z,13.36
2022-10-29T05:53:11.883Z,13.63
2022-10-29T05:55:40.177Z,13.80
2022-10-29T05:58:12.070Z,13.86
2022-10-29T06:00:42.656Z,13.38
2022-10-29T06:03:23.112Z,13.59
2022-10-29T06:05:51.568Z,13.33
2022-10-29T06:08:19.563Z,13.62
2022-10-29T06:10:47.247Z,13.08
2022-10-29T06:13:20.460Z,13.33
2022-10-29T06:15:51.231Z,13.61
2022-10-29T06:18:18.801Z,13.47
2022-10-29T06:20:46.444Z,13.63
2022-10-29T06:23:14.341Z,13.44
2022-10-29T06:25:41.932Z,13.33
2022-10-29T06:28:15.401Z,14.01
2022-10-29T06:30:48.619Z,13.44
2022-10-29T06:33:19.871Z,13.62
2022-10-29T06:35:48.415Z,13.71
2022-10-29T06:38:16.199Z,13.86
2022-10-29T06:40:43.946Z,13.95
2022-10-29T06:43:12.723Z,14.14
2022-10-29T06:45:40.517Z,13.64
2022-10-29T06:48:08.216Z,13.72
2022-10-29T06:50:36.079Z,13.66
2022-10-29T06:53:06.278Z,13.99
2022-10-29T06:55:34.625Z,14.04
2022-10-29T06:58:13.811Z,14.03
2022-10-29T07:00:42.759Z,14.19
2022-10-29T07:03:14.911Z,13.95
2022-10-29T07:05:42.533Z,14.21
2022-10-29T07:08:10.700Z,14.20
2022-10-29T07:10:38.768Z,14.30
2022-10-29T07:13:06.412Z,14.42
2022-10-29T07:15:34.012Z,14.37
2022-10-29T07:18:07.096Z,14.37
2022-10-29T07:20:37.364Z,14.40
2022-10-29T07:23:05.915Z,14.18
2022-10-29T07:25:35.320Z,14.38
2022-10-29T07:28:23.212Z,14.03
2022-10-29T07:30:52.467Z,14.02
2022-10-29T07:33:20.120Z,14.13
2022-10-29T07:35:47.730Z,14.27
2022-10-29T07:38:15.603Z,14.08
2022-10-29T07:40:50.393Z,14.02
2022-10-29T07:43:19.644Z,14.41
2022-10-29T07:45:52.067Z,14.11
2022-10-29T07:48:20.858Z,14.16
2022-10-29T07:50:49.040Z,13.75
2022-10-29T07:53:16.657Z,13.96
2022-10-29T07:55:44.545Z,14.02
2022-10-29T07:58:12.637Z,14.32
2022-10-29T08:00:41.328Z,14.40
2022-10-29T08:03:12.283Z,14.14
2022-10-29T08:05:42.562Z,14.09
2022-10-29T08:08:11.094Z,14.07
2022-10-29T08:10:38.727Z,14.00
2022-10-29T08:13:06.810Z,13.25
2022-10-29T08:15:35.292Z,13.94
2022-10-29T08:18:04.850Z,14.27
2022-10-29T08:20:32.475Z,14.31
2022-10-29T08:23:01.225Z,14.20
2022-10-29T08:25:29.518Z,13.79
2022-10-29T08:28:02.726Z,14.17
2022-10-29T08:30:31.896Z,14.60
2022-10-29T08:33:00.841Z,14.17
2022-10-29T08:35:29.527Z,14.03
2022-10-29T08:37:58.030Z,14.29
2022-10-29T08:40:47.595Z,14.52
2022-10-29T08:43:35.229Z,14.65
2022-10-29T08:46:03.437Z,14.38
2022-10-29T08:48:34.360Z,14.41
2022-10-29T08:51:36.431Z,14.37
2022-10-29T08:54:25.678Z,14.18
2022-10-29T08:56:56.716Z,14.09
2022-10-29T08:59:29.575Z,14.27
2022-10-29T09:01:57.386Z,13.91
2022-10-29T09:04:36.742Z,14.30
2022-10-29T09:07:36.467Z,14.69
2022-10-29T09:10:07.079Z,14.24
2022-10-29T09:13:12.110Z,14.37
2022-10-29T09:15:57.572Z,13.79
2022-10-29T09:18:53.195Z,14.15
2022-10-29T09:21:44.827Z,14.68
2022-10-29T09:24:28.038Z,14.42
2022-10-29T09:27:05.373Z,14.45
2022-10-29T09:29:58.931Z,14.48
2022-10-29T09:33:00.146Z,14.40
2022-10-29T09:35:54.951Z,14.42
2022-10-29T09:38:27.071Z,14.36
2022-10-29T09:40:58.215Z,14.45
2022-10-29T09:43:35.237Z,14.70
2022-10-29T09:46:08.980Z,14.77
2022-10-29T09:48:46.403Z,14.88
2022-10-29T09:51:42.163Z,14.97
2022-10-29T09:54:10.346Z,14.80
2022-10-29T09:56:47.783Z,14.90
2022-10-29T09:59:35.153Z,14.71
2022-10-29T10:02:04.726Z,14.84
2022-10-29T10:04:40.388Z,14.87
2022-10-29T10:07:10.660Z,15.15
2022-10-29T10:09:54.351Z,14.97
2022-10-29T10:12:28.058Z,14.98
2022-10-29T10:15:28.290Z,14.96
2022-10-29T10:18:21.963Z,15.25
2022-10-29T10:21:01.627Z,15.10
2022-10-29T10:23:40.720Z,14.86
2022-10-29T10:26:32.868Z,15.11
2022-10-29T10:29:14.320Z,15.23
2022-10-29T10:31:47.930Z,15.20
2022-10-29T10:34:15.462Z,15.41
2022-10-29T10:36:47.795Z,14.79
2022-10-29T10:39:31.619Z,15.09
2022-10-29T10:42:02.742Z,14.83
2022-10-29T10:44:30.748Z,14.88
2022-10-29T10:47:04.809Z,14.70
2022-10-29T10:49:38.046Z,14.84
2022-10-29T10:52:13.825Z,15.09
2022-10-29T10:54:46.412Z,15.22
2022-10-29T10:57:14.802Z,15.06
2022-10-29T10:59:54.280Z,14.58
2022-10-29T11:02:40.286Z,14.92
2022-10-29T11:05:18.796Z,15.07
2022-10-29T11:08:07.094Z,14.98
2022-10-29T11:10:40.833Z,14.58
2022-10-29T11:13:15.954Z,14.66
2022-10-29T11:16:05.461Z,14.86
2022-10-29T11:18:55.190Z,15.01
2022-10-29T11:21:32.859Z,14.88
2022-10-29T11:24:08.902Z,14.80
2022-10-29T11:26:44.713Z,15.38
2022-10-29T11:29:18.400Z,14.65
2022-10-29T11:31:56.808Z,14.66
2022-10-29T11:34:27.322Z,15.07
2022-10-29T11:37:07.198Z,14.86
2022-10-29T11:39:49.398Z,15.05
2022-10-29T11:42:17.613Z,15.30
2022-10-29T11:44:48.166Z,15.42
2022-10-29T11:47:30.929Z,15.52
2022-10-29T11:50:23.161Z,15.23
2022-10-29T11:53:54.702Z,15.39
2022-10-29T11:57:13.781Z,15.55
2022-10-29T12:00:13.420Z,15.50
2022-10-29T12:03:10.052Z,15.63
2022-10-29T12:05:50.004Z,15.60
2022-10-29T12:08:20.630Z,15.87
2022-10-29T12:11:00.498Z,15.68
2022-10-29T12:13:42.865Z,15.76
2022-10-29T12:16:16.474Z,15.75
2022-10-29T12:18:49.964Z,15.51
2022-10-29T12:21:26.591Z,15.58
2022-10-29T12:24:15.532Z,15.76
2022-10-29T12:26:54.538Z,16.01
2022-10-29T12:29:25.806Z,15.94
2022-10-29T12:32:11.157Z,15.84
2022-10-29T12:34:50.883Z,16.06
2022-10-29T12:38:06.324Z,15.60
2022-10-29T12:40:37.961Z,15.76
2022-10-29T12:43:11.887Z,15.62
2022-10-29T12:48:50.049Z,15.44
2022-10-29T12:51:42.949Z,15.49
2022-10-29T12:54:46.348Z,15.49
2022-10-29T12:57:13.854Z,15.25
2022-10-29T12:59:43.408Z,15.13
2022-10-29T13:02:27.783Z,14.85
2022-10-29T13:05:09.711Z,15.32
2022-10-29T13:07:59.275Z,15.43
2022-10-29T13:10:29.716Z,15.38
2022-10-29T13:13:20.252Z,15.53
2022-10-29T13:16:00.645Z,15.48
2022-10-29T13:19:06.626Z,15.49
2022-10-29T13:22:22.757Z,15.45
2022-10-29T13:25:41.587Z,15.58
2022-10-29T13:28:09.490Z,15.65
2022-10-29T13:30:41.049Z,15.63
2022-10-29T13:33:23.703Z,15.62
2022-10-29T13:36:00.820Z,15.41
2022-10-29T13:39:04.437Z,15.33
2022-10-29T13:41:43.276Z,15.22
2022-10-29T13:44:16.709Z,15.39
2022-10-29T13:46:49.667Z,15.34
2022-10-29T13:49:34.405Z,15.46
2022-10-29T13:52:17.341Z,15.25
2022-10-29T13:54:57.097Z,15.45
2022-10-29T13:57:50.824Z,15.50
2022-10-29T14:00:20.977Z,15.41
2022-10-29T14:03:01.873Z,15.42
2022-10-29T14:05:45.177Z,15.54
2022-10-29T14:08:25.028Z,15.24
2022-10-29T14:10:59.513Z,15.41
2022-10-29T14:13:36.917Z,15.34
2022-10-29T14:16:07.496Z,15.37
2022-10-29T14:18:43.871Z,15.23
2022-10-29T14:21:17.288Z,14.96
2022-10-29T14:24:02.542Z,15.36
2022-10-29T14:26:32.450Z,15.45
2022-10-29T14:29:29.672Z,15.20
2022-10-29T14:32:20.711Z,15.35
2022-10-29T14:34:52.635Z,15.58
2022-10-29T14:37:34.183Z,15.28
2022-10-29T14:40:13.952Z,14.91
2022-10-29T14:42:46.610Z,15.23
2022-10-29T14:45:22.844Z,15.47
2022-10-29T14:48:00.519Z,15.21
2022-10-29T14:50:30.033Z,15.33
2022-10-29T14:53:20.773Z,15.31
2022-10-29T14:55:50.210Z,15.38
2022-10-29T14:58:31.083Z,15.45
2022-10-29T15:01:03.539Z,15.32
2022-10-29T15:03:33.875Z,15.25
2022-10-29T15:06:15.921Z,15.23
2022-10-29T15:08:46.325Z,15.25
2022-10-29T15:11:40.080Z,15.17
2022-10-29T15:14:36.694Z,15.08
2022-10-29T15:17:25.133Z,15.16
2022-10-29T15:20:01.378Z,15.32
2022-10-29T15:22:39.578Z,15.25
2022-10-29T15:25:15.458Z,15.30
2022-10-29T15:27:43.587Z,15.27
2022-10-29T15:30:22.796Z,15.12
2022-10-29T15:32:50.950Z,15.12
2022-10-29T15:35:21.545Z,15.01
2022-10-29T15:37:51.592Z,15.31
2022-10-29T15:40:24.187Z,15.28
2022-10-29T15:42:53.198Z,15.09
2022-10-29T15:45:26.962Z,15.07
2022-10-29T15:48:09.792Z,15.17
2022-10-29T15:50:43.243Z,15.28
2022-10-29T15:53:16.092Z,15.25
2022-10-29T15:55:44.064Z,15.32
2022-10-29T15:58:14.857Z,15.41
2022-10-29T16:00:43.238Z,15.29
2022-10-29T16:03:20.039Z,15.28
2022-10-29T16:05:49.990Z,15.15
2022-10-29T16:08:27.382Z,15.15
2022-10-29T16:10:56.184Z,15.13
2022-10-29T16:13:25.980Z,15.26
2022-10-29T16:15:53.607Z,15.25
2022-10-29T16:18:22.344Z,15.29
2022-10-29T16:20:55.403Z,15.20
2022-10-29T16:23:22.983Z,15.28
2022-10-29T16:25:51.005Z,15.30
2022-10-29T16:28:18.703Z,15.19
2022-10-29T16:30:57.117Z,15.49
2022-10-29T16:33:25.254Z,15.46
2022-10-29T16:35:52.816Z,15.13
2022-10-29T16:38:20.488Z,15.24
2022-10-29T16:40:48.317Z,15.19
2022-10-29T16:43:15.853Z,15.22
2022-10-29T16:45:44.008Z,15.25
2022-10-29T16:48:11.901Z,15.24
2022-10-29T16:50:39.493Z,15.32
2022-10-29T16:53:10.115Z,15.41
2022-10-29T16:55:38.866Z,15.33
2022-10-29T16:58:08.723Z,15.23
2022-10-29T17:00:36.817Z,15.25
2022-10-29T17:03:10.960Z,15.27
2022-10-29T17:05:45.315Z,15.28
2022-10-29T17:08:13.703Z,15.12
2022-10-29T17:10:41.271Z,15.17
2022-10-29T17:13:11.287Z,15.18
2022-10-29T17:15:40.988Z,14.78
2022-10-29T17:18:08.726Z,14.98
2022-10-29T17:20:36.414Z,14.93
2022-10-29T17:23:04.237Z,15.12
2022-10-29T17:25:31.913Z,14.76
2022-10-29T17:27:59.965Z,14.60
2022-10-29T17:30:28.150Z,14.77
2022-10-29T17:32:56.246Z,14.95
2022-10-29T17:35:24.241Z,14.28
2022-10-29T17:37:52.156Z,14.39
2022-10-29T17:40:20.378Z,14.84
2022-10-29T17:42:47.873Z,14.90
2022-10-29T17:45:20.415Z,14.92
2022-10-29T17:47:48.198Z,14.79
2022-10-29T17:50:16.206Z,14.99
2022-10-29T17:52:43.777Z,14.60
2022-10-29T17:55:11.362Z,13.98
2022-10-29T17:57:39.944Z,14.41
2022-10-29T18:00:08.170Z,14.89
2022-10-29T18:02:36.025Z,14.36
2022-10-29T18:05:03.912Z,14.63
2022-10-29T18:07:31.473Z,13.99
2022-10-29T18:10:01.183Z,14.41
2022-10-29T18:12:29.182Z,14.73
2022-10-29T18:14:56.951Z,14.89
2022-10-29T18:17:24.814Z,14.68
2022-10-29T18:19:55.441Z,14.52
2022-10-29T18:22:22.971Z,14.85
2022-10-29T18:24:51.057Z,14.90
2022-10-29T18:27:20.232Z,14.99
2022-10-29T18:29:48.088Z,14.93
2022-10-29T18:32:16.492Z,14.80
2022-10-29T18:34:44.120Z,14.89
2022-10-29T18:37:11.908Z,14.94
2022-10-29T18:39:39.811Z,14.83
2022-10-29T18:42:07.543Z,14.91
2022-10-29T18:44:35.614Z,15.11
2022-10-29T18:47:03.543Z,15.15
2022-10-29T18:49:31.299Z,15.20
2022-10-29T18:51:59.092Z,15.06
2022-10-29T18:54:27.163Z,15.07
2022-10-29T18:56:55.083Z,15.06
2022-10-29T18:59:22.755Z,15.00
2022-10-29T19:01:50.914Z,15.18
2022-10-29T19:04:18.693Z,15.26
2022-10-29T19:06:46.621Z,15.18
2022-10-29T19:09:14.816Z,15.22
2022-10-29T19:11:42.751Z,15.25
2022-10-29T19:14:13.163Z,15.15
2022-10-29T19:16:41.385Z,15.14
2022-10-29T19:19:12.625Z,15.23
2022-10-29T19:21:42.308Z,15.36
2022-10-29T19:24:13.862Z,15.43
2022-10-29T19:26:42.258Z,15.35
2022-10-29T19:29:10.827Z,15.30
2022-10-29T19:31:38.820Z,15.36
2022-10-29T19:34:08.151Z,15.33
2022-10-29T19:36:37.005Z,15.49
2022-10-29T19:39:05.579Z,15.49
2022-10-29T19:41:33.667Z,15.46
2022-10-29T19:44:02.570Z,15.56
2022-10-29T19:46:31.081Z,15.55
2022-10-29T19:48:59.223Z,15.55
2022-10-29T19:51:27.905Z,15.42
2022-10-29T19:53:58.032Z,15.55
2022-10-29T19:56:25.899Z,15.56
2022-10-29T19:58:54.084Z,15.30
2022-10-29T20:01:25.204Z,15.30
2022-10-29T20:03:53.172Z,15.46
2022-10-29T20:06:21.468Z,15.30
2022-10-29T20:08:49.084Z,15.51
2022-10-29T20:11:17.189Z,15.48
2022-10-29T20:13:44.701Z,15.46
2022-10-29T20:16:17.037Z,15.03
2022-10-29T20:18:45.744Z,15.21
2022-10-29T20:21:13.878Z,15.22
2022-10-29T20:23:41.752Z,15.32
2022-10-29T20:26:10.157Z,15.33
2022-10-29T20:28:37.795Z,15.54
2022-10-29T20:31:17.951Z,15.12
2022-10-29T20:33:50.456Z,15.45
2022-10-29T20:36:21.289Z,15.40
2022-10-29T20:38:51.269Z,15.32
2022-10-29T20:41:19.924Z,15.31
2022-10-29T20:43:56.321Z,15.39
2022-10-29T20:46:25.116Z,15.22
2022-10-29T20:48:53.161Z,15.16
2022-10-29T20:51:22.869Z,15.37
2022-10-29T20:53:52.309Z,15.23
2022-10-29T20:56:21.758Z,15.33
2022-10-29T20:58:49.418Z,14.74
2022-10-29T21:01:19.229Z,15.12
2022-10-29T21:03:49.985Z,15.12
2022-10-29T21:06:19.128Z,15.25
2022-10-29T21:08:47.842Z,15.31
2022-10-29T21:11:17.152Z,15.03
2022-10-29T21:13:45.656Z,14.74
2022-10-29T21:16:29.100Z,15.06
2022-10-29T21:18:59.842Z,14.99
2022-10-29T21:21:29.267Z,14.79
2022-10-29T21:23:57.547Z,15.05
2022-10-29T21:26:27.137Z,14.87
2022-10-29T21:28:55.134Z,14.79
2022-10-29T21:31:23.823Z,15.22
2022-10-29T21:33:52.726Z,15.55
2022-10-29T21:36:21.345Z,15.20
2022-10-29T21:38:49.613Z,15.07
2022-10-29T21:41:18.496Z,15.07
2022-10-29T21:43:46.119Z,15.04
2022-10-29T21:46:14.090Z,14.83
2022-10-29T21:48:41.800Z,15.00
2022-10-29T21:51:14.786Z,14.84
2022-10-29T21:53:44.305Z,14.85
2022-10-29T21:56:15.459Z,14.95
2022-10-29T21:58:43.751Z,14.98
2022-10-29T22:01:14.175Z,15.14
2022-10-29T22:03:43.896Z,15.21
2022-10-29T22:06:19.586Z,14.68
2022-10-29T22:08:52.094Z,14.42
2022-10-29T22:11:19.655Z,14.59
2022-10-29T22:13:47.589Z,14.73
2022-10-29T22:16:15.198Z,14.93
2022-10-29T22:18:42.930Z,15.09
2022-10-29T22:21:13.901Z,14.84
2022-10-29T22:24:01.722Z,15.03
2022-10-29T22:26:30.222Z,14.76
2022-10-29T22:28:57.884Z,14.65
2022-10-29T22:31:25.899Z,15.06
2022-10-29T22:33:53.898Z,14.88
2022-10-29T22:36:23.805Z,14.94
2022-10-29T22:38:59.548Z,14.83
2022-10-29T22:41:28.243Z,14.76
2022-10-29T22:43:59.375Z,14.93
2022-10-29T22:46:28.641Z,14.84
2022-10-29T22:48:56.993Z,14.93
2022-10-29T22:51:27.563Z,14.82
2022-10-29T22:53:55.627Z,14.95
2022-10-29T22:56:26.092Z,14.71
2022-10-29T22:58:54.352Z,14.98
2022-10-29T23:01:27.561Z,14.82
2022-10-29T23:03:55.460Z,14.77
2022-10-29T23:06:23.739Z,14.68
2022-10-29T23:08:55.682Z,14.57
2022-10-29T23:11:26.047Z,14.40
2022-10-29T23:13:56.148Z,14.74
2022-10-29T23:16:25.713Z,14.73
2022-10-29T23:19:03.597Z,14.64
2022-10-29T23:21:31.799Z,14.73
2022-10-29T23:23:59.503Z,14.79
2022-10-29T23:26:27.709Z,14.70
2022-10-29T23:28:55.745Z,14.03
2022-10-29T23:31:28.205Z,14.09
2022-10-29T23:33:57.985Z,14.39
2022-10-29T23:36:27.145Z,14.83
2022-10-29T23:38:59.547Z,14.57
2022-10-29T23:41:30.039Z,14.71
2022-10-29T23:43:58.403Z,14.59
2022-10-29T23:46:26.043Z,14.51
2022-10-29T23:48:54.189Z,14.57
2022-10-29T23:51:21.834Z,14.51
2022-10-29T23:53:51.815Z,14.32
2022-10-29T23:56:22.752Z,14.49
2022-10-29T23:58:50.290Z,14.44
